Time;durP1;ratioP1;P1;durP2;ratioP2;P2;SDS_P1;SDS_P2;PMS_P1;PMS_P2;Temp;Humidity;BMP_temperature;BMP_pressure;BME280_temperature;BME280_humidity;BME280_pressure;Samples;Min_cycle;Max_cycle;Signal;HPM_P1;HPM_P2
2022/08/31 00:05:05;;;;;;;;;;;;;;;;;;4921389;29;19927;-76
2022/08/31 00:07:33;;;;;;;;;;;;;;;;;;4909011;29;19943;-77
2022/08/31 00:10:02;;;;;;;;;;;;;;;;;;4905473;29;19939;-77
2022/08/31 00:12:30;;;;;;;;;;;;;;;;;;4920854;29;19931;-76
2022/08/31 00:14:57;;;;;;;;;;;;;;;;;;4925971;29;19962;-76
2022/08/31 00:17:24;;;;;;;;;;;;;;;;;;4929040;29;19995;-76
2022/08/31 00:19:51;;;;;;;;;;;;;;;;;;4931909;29;19939;-76
2022/08/31 00:22:19;;;;;;;;;;;;;;;;;;4909836;29;19941;-77
2022/08/31 00:24:46;;;;;;;;;;;;;;;;;;4915439;29;19934;-77
2022/08/31 00:27:14;;;;;;;;;;;;;;;;;;4913494;29;19931;-76
2022/08/31 00:29:41;;;;;;;;;;;;;;;;;;4927848;29;20111;-76
2022/08/31 00:32:09;;;;;;;;;;;;;;;;;;4925057;29;19946;-77
2022/08/31 00:34:37;;;;;;;;;;;;;;;;;;4928528;29;19950;-76
2022/08/31 00:37:04;;;;;;;;;;;;;;;;;;4907142;29;19931;-76
2022/08/31 00:39:31;;;;;;;;;;;;;;;;;;4908546;29;20318;-76
2022/08/31 00:41:58;;;;;;;;;;;;;;;;;;4907301;29;19931;-76
2022/08/31 00:44:26;;;;;;;;;;;;;;;;;;4911824;29;19937;-76
2022/08/31 00:46:53;;;;;;;;;;;;;;;;;;4926608;29;19938;-76
2022/08/31 00:49:20;;;;;;;;;;;;;;;;;;4911099;29;19994;-77
2022/08/31 00:51:47;;;;;;;;;;;;;;;;;;4909407;29;19934;-76
2022/08/31 00:54:15;;;;;;;;;;;;;;;;;;4909781;29;20087;-77
2022/08/31 00:56:43;;;;;;;;;;;;;;;;;;4907580;29;19939;-77
2022/08/31 00:59:11;;;;;;;;;;;;;;;;;;4919903;29;19938;-77
2022/08/31 01:01:38;;;;;;;;;;;;;;;;;;4921798;29;19935;-77
2022/08/31 01:04:05;;;;;;;;;;;;;;;;;;4911448;29;19931;-77
2022/08/31 01:06:32;;;;;;;;;;;;;;;;;;4922393;29;19931;-76
2022/08/31 01:09:00;;;;;;;;;;;;;;;;;;4906506;29;20399;-76
2022/08/31 01:11:27;;;;;;;;;;;;;;;;;;4910771;29;19931;-77
2022/08/31 01:13:54;;;;;;;;;;;;;;;;;;4926379;29;19974;-76
2022/08/31 01:16:21;;;;;;;;;;;;;;;;;;4907696;29;19965;-76
2022/08/31 01:18:49;;;;;;;;;;;;;;;;;;4910695;29;19942;-76
2022/08/31 01:21:16;;;;;;;;;;;;;;;;;;4906039;29;19959;-76
2022/08/31 01:23:43;;;;;;;;;;;;;;;;;;4909695;29;20296;-76
2022/08/31 01:26:11;;;;;;;;;;;;;;;;;;4924839;29;20175;-76
2022/08/31 01:28:38;;;;;;;;;;;;;;;;;;4912942;29;19935;-76
2022/08/31 01:31:05;;;;;;;;;;;;;;;;;;4906583;29;19938;-76
2022/08/31 01:33:33;;;;;;;;;;;;;;;;;;4910665;29;19927;-76
2022/08/31 01:36:00;;;;;;;;;;;;;;;;;;4911224;29;19931;-76
2022/08/31 01:38:27;;;;;;;;;;;;;;;;;;4925458;29;19931;-76
2022/08/31 01:40:54;;;;;;;;;;;;;;;;;;4901012;29;19931;-77
2022/08/31 01:43:22;;;;;;;;;;;;;;;;;;4893858;29;19931;-76
2022/08/31 01:45:49;;;;;;;;;;;;;;;;;;4923955;29;19942;-77
2022/08/31 01:48:16;;;;;;;;;;;;;;;;;;4906461;29;19981;-76
2022/08/31 01:50:45;;;;;;;;;;;;;;;;;;4917006;29;19931;-77
2022/08/31 01:53:12;;;;;;;;;;;;;;;;;;4892233;29;20371;-76
2022/08/31 01:55:39;;;;;;;;;;;;;;;;;;4914688;29;20042;-76
2022/08/31 01:58:07;;;;;;;;;;;;;;;;;;4908477;29;19991;-77
2022/08/31 02:00:52;;;;;;;;;;;;;;;;;;4903402;29;19938;-76
2022/08/31 02:03:20;;;;;;;;;;;;;;;;;;4909022;29;19927;-76
2022/08/31 02:05:47;;;;;;;;;;;;;;;;;;4904251;29;19938;-77
2022/08/31 02:08:15;;;;;;;;;;;;;;;;;;4921417;29;19931;-76
2022/08/31 02:10:42;;;;;;;;;;;;;;;;;;4908000;29;19931;-76
2022/08/31 02:13:09;;;;;;;;;;;;;;;;;;4901869;29;19967;-76
2022/08/31 02:15:36;;;;;;;;;;;;;;;;;;4920685;29;19962;-76
2022/08/31 02:18:04;;;;;;;;;;;;;;;;;;4908284;29;19938;-76
2022/08/31 02:20:31;;;;;;;;;;;;;;;;;;4908066;29;19927;-76
2022/08/31 02:23:02;;;;;;;;;;;;;;;;;;4888929;29;19931;-76
2022/08/31 02:25:29;;;;;;;;;;;;;;;;;;4883581;29;19942;-76
2022/08/31 02:27:57;;;;;;;;;;;;;;;;;;4919260;29;20004;-77
2022/08/31 02:30:25;;;;;;;;;;;;;;;;;;4900534;29;19927;-76
2022/08/31 02:32:52;;;;;;;;;;;;;;;;;;4907623;29;19931;-77
2022/08/31 02:35:19;;;;;;;;;;;;;;;;;;4908146;29;20001;-76
2022/08/31 02:37:47;;;;;;;;;;;;;;;;;;4910074;29;19931;-76
2022/08/31 02:40:14;;;;;;;;;;;;;;;;;;4922572;29;19995;-76
2022/08/31 02:42:41;;;;;;;;;;;;;;;;;;4906298;29;19931;-75
2022/08/31 02:45:20;;;;;;;;;;;;;;;;;;4906925;29;20033;-76
2022/08/31 02:47:47;;;;;;;;;;;;;;;;;;4905160;29;19931;-76
2022/08/31 02:50:22;;;;;;;;;;;;;;;;;;4903225;29;20413;-77
2022/08/31 02:52:52;;;;;;;;;;;;;;;;;;4923760;29;20015;-77
2022/08/31 02:55:20;;;;;;;;;;;;;;;;;;4909541;29;20026;-77
2022/08/31 02:57:49;;;;;;;;;;;;;;;;;;4924066;29;20122;-76
2022/08/31 03:00:17;;;;;;;;;;;;;;;;;;4906030;29;19934;-77
2022/08/31 03:02:44;;;;;;;;;;;;;;;;;;4922245;29;20426;-76
2022/08/31 03:05:11;;;;;;;;;;;;;;;;;;4918626;29;20050;-76
2022/08/31 03:07:39;;;;;;;;;;;;;;;;;;4907230;29;20002;-76
2022/08/31 03:10:06;;;;;;;;;;;;;;;;;;4905043;29;19938;-77
2022/08/31 03:12:34;;;;;;;;;;;;;;;;;;4904701;29;20003;-76
2022/08/31 03:15:01;;;;;;;;;;;;;;;;;;4922923;29;19927;-77
2022/08/31 03:17:28;;;;;;;;;;;;;;;;;;4922777;29;19990;-76
2022/08/31 03:20:01;;;;;;;;;;;;;;;;;;4940938;29;19927;-75
2022/08/31 03:22:28;;;;;;;;;;;;;;;;;;4901764;29;19931;-76
2022/08/31 03:24:56;;;;;;;;;;;;;;;;;;4910848;29;20042;-76
2022/08/31 03:27:28;;;;;;;;;;;;;;;;;;4923248;29;20196;-76
2022/08/31 03:29:55;;;;;;;;;;;;;;;;;;4894260;29;20193;-76
2022/08/31 03:32:26;;;;;;;;;;;;;;;;;;4903269;29;19935;-77
2022/08/31 03:34:54;;;;;;;;;;;;;;;;;;4917837;29;20017;-76
2022/08/31 03:37:21;;;;;;;;;;;;;;;;;;4906587;29;20365;-76
2022/08/31 03:39:49;;;;;;;;;;;;;;;;;;4901196;29;20218;-76
2022/08/31 03:42:16;;;;;;;;;;;;;;;;;;4922713;29;19934;-76
2022/08/31 03:44:43;;;;;;;;;;;;;;;;;;4922340;29;19931;-76
2022/08/31 03:47:18;;;;;;;;;;;;;;;;;;4920850;29;19931;-76
2022/08/31 03:49:45;;;;;;;;;;;;;;;;;;4905157;29;19938;-76
2022/08/31 03:52:21;;;;;;;;;;;;;;;;;;4892059;29;19994;-76
2022/08/31 03:54:58;;;;;;;;;;;;;;;;;;4917268;29;19931;-76
2022/08/31 03:57:26;;;;;;;;;;;;;;;;;;4900686;29;19974;-77
2022/08/31 03:59:53;;;;;;;;;;;;;;;;;;4920291;29;19934;-76
2022/08/31 04:02:39;;;;;;;;;;;;;;;;;;4904934;29;19931;-76
2022/08/31 04:05:35;;;;;;;;;;;;;;;;;;4902350;29;19927;-76
2022/08/31 04:08:21;;;;;;;;;;;;;;;;;;4906731;29;19935;-76
2022/08/31 04:11:07;;;;;;;;;;;;;;;;;;4903890;29;20896;-76
2022/08/31 04:13:53;;;;;;;;;;;;;;;;;;4907355;29;20307;-76
2022/08/31 04:16:39;;;;;;;;;;;;;;;;;;4906845;29;20392;-76
2022/08/31 04:19:18;;;;;;;;;;;;;;;;;;4888671;29;19927;-76
2022/08/31 04:21:56;;;;;;;;;;;;;;;;;;4906760;29;19931;-76
2022/08/31 04:24:24;;;;;;;;;;;;;;;;;;4905594;29;19978;-76
2022/08/31 04:26:51;;;;;;;;;;;;;;;;;;4908993;29;19935;-77
2022/08/31 04:29:19;;;;;;;;;;;;;;;;;;4901945;29;20241;-74
2022/08/31 04:31:46;;;;;;;;;;;;;;;;;;4917782;29;20361;-76
2022/08/31 04:34:13;;;;;;;;;;;;;;;;;;4919552;29;20383;-76
2022/08/31 04:36:44;;;;;;;;;;;;;;;;;;4886127;29;19931;-75
2022/08/31 04:39:11;;;;;;;;;;;;;;;;;;4917025;29;20317;-75
2022/08/31 04:41:38;;;;;;;;;;;;;;;;;;4918398;29;19934;-75
2022/08/31 04:44:10;;;;;;;;;;;;;;;;;;4896807;29;20030;-76
2022/08/31 04:46:37;;;;;;;;;;;;;;;;;;4902143;29;19982;-76
2022/08/31 04:49:07;;;;;;;;;;;;;;;;;;4918496;29;20025;-76
2022/08/31 04:51:35;;;;;;;;;;;;;;;;;;4905590;29;19931;-76
2022/08/31 04:54:02;;;;;;;;;;;;;;;;;;4922217;29;20292;-75
2022/08/31 04:56:30;;;;;;;;;;;;;;;;;;4916933;29;20029;-76
2022/08/31 04:58:57;;;;;;;;;;;;;;;;;;4905135;29;19943;-76
2022/08/31 05:01:26;;;;;;;;;;;;;;;;;;4896844;29;19996;-75
2022/08/31 05:04:10;;;;;;;;;;;;;;;;;;4914241;29;20009;-76
2022/08/31 05:06:37;;;;;;;;;;;;;;;;;;4902210;29;19943;-75
2022/08/31 05:09:04;;;;;;;;;;;;;;;;;;4906816;29;20233;-75
2022/08/31 05:11:32;;;;;;;;;;;;;;;;;;4903058;29;19935;-76
2022/08/31 05:13:59;;;;;;;;;;;;;;;;;;4906951;29;19938;-75
2022/08/31 05:16:26;;;;;;;;;;;;;;;;;;4902946;29;20387;-76
2022/08/31 05:18:53;;;;;;;;;;;;;;;;;;4906317;29;20403;-75
2022/08/31 05:21:27;;;;;;;;;;;;;;;;;;4907656;29;19931;-74
2022/08/31 05:23:54;;;;;;;;;;;;;;;;;;4921977;29;19939;-75
2022/08/31 05:26:21;;;;;;;;;;;;;;;;;;4925504;29;19935;-74
2022/08/31 05:28:53;;;;;;;;;;;;;;;;;;4902301;29;20407;-75
2022/08/31 05:31:20;;;;;;;;;;;;;;;;;;4920064;29;20031;-75
2022/08/31 05:33:48;;;;;;;;;;;;;;;;;;4920251;29;20388;-75
2022/08/31 05:36:16;;;;;;;;;;;;;;;;;;4923109;29;19938;-74
2022/08/31 05:38:44;;;;;;;;;;;;;;;;;;4904699;29;20108;-75
2022/08/31 05:41:12;;;;;;;;;;;;;;;;;;4925248;29;20139;-74
2022/08/31 05:43:39;;;;;;;;;;;;;;;;;;4890521;29;20021;-76
2022/08/31 05:46:07;;;;;;;;;;;;;;;;;;4903503;29;20035;-75
2022/08/31 05:48:37;;;;;;;;;;;;;;;;;;4905347;29;19931;-75
2022/08/31 05:51:08;;;;;;;;;;;;;;;;;;4918023;29;19927;-75
2022/08/31 05:53:35;;;;;;;;;;;;;;;;;;4901872;29;19932;-73
2022/08/31 05:56:02;;;;;;;;;;;;;;;;;;4902300;29;19931;-75
2022/08/31 05:58:29;;;;;;;;;;;;;;;;;;4903861;29;20058;-74
2022/08/31 06:00:57;;;;;;;;;;;;;;;;;;4903059;29;19938;-75
2022/08/31 06:03:53;;;;;;;;;;;;;;;;;;4904606;29;19931;-74
2022/08/31 06:06:21;;;;;;;;;;;;;;;;;;4906481;29;20203;-74
2022/08/31 06:08:51;;;;;;;;;;;;;;;;;;4921239;29;19927;-75
2022/08/31 06:11:18;;;;;;;;;;;;;;;;;;4903940;29;19977;-74
2022/08/31 06:13:46;;;;;;;;;;;;;;;;;;4917461;29;19936;-73
2022/08/31 06:16:13;;;;;;;;;;;;;;;;;;4892745;29;19931;-74
2022/08/31 06:18:49;;;;;;;;;;;;;;;;;;4902390;29;19999;-74
2022/08/31 06:21:17;;;;;;;;;;;;;;;;;;4884679;29;19934;-74
2022/08/31 06:23:45;;;;;;;;;;;;;;;;;;4919210;29;19937;-74
2022/08/31 06:26:14;;;;;;;;;;;;;;;;;;4902246;29;19973;-74
2022/08/31 06:28:42;;;;;;;;;;;;;;;;;;4918022;29;19935;-74
2022/08/31 06:31:11;;;;;;;;;;;;;;;;;;4912042;29;20101;-75
2022/08/31 06:33:39;;;;;;;;;;;;;;;;;;4895815;29;19931;-75
2022/08/31 06:36:14;;;;;;;;;;;;;;;;;;4920269;29;19942;-72
2022/08/31 06:38:54;;;;;;;;;;;;;;;;;;4883248;29;20029;-74
2022/08/31 06:41:32;;;;;;;;;;;;;;;;;;4920662;29;19935;-74
2022/08/31 06:44:25;;;;;;;;;;;;;;;;;;4910687;29;19935;-74
2022/08/31 06:47:05;;;;;;;;;;;;;;;;;;4889391;29;20018;-74
2022/08/31 06:49:37;;;;;;;;;;;;;;;;;;4902248;29;19935;-73
2022/08/31 06:52:04;;;;;;;;;;;;;;;;;;4903207;29;20035;-74
2022/08/31 06:54:32;;;;;;;;;;;;;;;;;;4895681;29;21300;-74
2022/08/31 06:57:18;;;;;;;;;;;;;;;;;;4901919;29;19931;-74
2022/08/31 07:00:04;;;;;;;;;;;;;;;;;;4889734;29;19931;-73
2022/08/31 07:02:50;;;;;;;;;;;;;;;;;;4917228;29;19935;-74
2022/08/31 07:05:23;;;;;;;;;;;;;;;;;;4915943;29;19935;-73
2022/08/31 07:07:52;;;;;;;;;;;;;;;;;;4898729;29;19935;-73
2022/08/31 07:10:19;;;;;;;;;;;;;;;;;;4917809;29;19927;-74
2022/08/31 07:12:47;;;;;;;;;;;;;;;;;;4902937;29;19979;-75
2022/08/31 07:15:14;;;;;;;;;;;;;;;;;;4913138;29;20699;-73
2022/08/31 07:17:43;;;;;;;;;;;;;;;;;;4913167;29;20392;-74
2022/08/31 07:20:10;;;;;;;;;;;;;;;;;;4905629;29;20018;-74
2022/08/31 07:22:38;;;;;;;;;;;;;;;;;;4907002;29;19934;-74
2022/08/31 07:25:27;;;;;;;;;;;;;;;;;;4919037;29;19986;-74
2022/08/31 07:27:54;;;;;;;;;;;;;;;;;;4915716;29;20006;-74
2022/08/31 07:30:22;;;;;;;;;;;;;;;;;;4917430;29;19931;-75
2022/08/31 07:32:50;;;;;;;;;;;;;;;;;;4920194;29;19931;-75
2022/08/31 07:35:17;;;;;;;;;;;;;;;;;;4892362;29;22492;-74
2022/08/31 07:43:39;;;;;;;;;;;;;;;;;;4911188;29;20383;-75
2022/08/31 07:46:07;;;;;;;;;;;;;;;;;;4918736;29;19934;-74
2022/08/31 07:48:35;;;;;;;;;;;;;;;;;;4901972;29;19986;-74
2022/08/31 07:51:22;;;;;;;;;;;;;;;;;;4904211;29;19927;-74
2022/08/31 07:54:16;;;;;;;;;;;;;;;;;;4894286;29;19959;-74
2022/08/31 07:57:02;;;;;;;;;;;;;;;;;;4907207;29;19935;-75
2022/08/31 07:59:30;;;;;;;;;;;;;;;;;;4907166;29;19935;-74
2022/08/31 08:02:00;;;;;;;;;;;;;;;;;;4918129;29;19942;-75
2022/08/31 08:04:28;;;;;;;;;;;;;;;;;;4886038;29;19931;-75
2022/08/31 08:07:21;;;;;;;;;;;;;;;;;;4889418;29;19974;-75
2022/08/31 08:10:04;;;;;;;;;;;;;;;;;;4898425;29;19938;-74
2022/08/31 08:13:04;;;;;;;;;;;;;;;;;;4904655;29;20051;-74
2022/08/31 08:15:44;;;;;;;;;;;;;;;;;;4898892;29;19942;-75
2022/08/31 08:18:37;;;;;;;;;;;;;;;;;;4899091;29;19932;-74
2022/08/31 08:21:05;;;;;;;;;;;;;;;;;;4899483;29;19931;-74
2022/08/31 08:23:32;;;;;;;;;;;;;;;;;;4903026;29;19931;-74
2022/08/31 08:26:18;;;;;;;;;;;;;;;;;;4906512;29;19931;-75
2022/08/31 08:29:03;;;;;;;;;;;;;;;;;;4905303;29;19954;-74
2022/08/31 08:31:30;;;;;;;;;;;;;;;;;;4904561;29;19979;-75
2022/08/31 08:33:58;;;;;;;;;;;;;;;;;;4913577;29;19928;-75
2022/08/31 08:36:25;;;;;;;;;;;;;;;;;;4917918;29;19931;-73
2022/08/31 08:38:53;;;;;;;;;;;;;;;;;;4901209;29;19939;-74
2022/08/31 08:41:23;;;;;;;;;;;;;;;;;;4901236;29;19941;-74
2022/08/31 08:43:52;;;;;;;;;;;;;;;;;;4922325;29;19946;-73
2022/08/31 08:46:20;;;;;;;;;;;;;;;;;;4909487;29;19935;-73
2022/08/31 08:49:09;;;;;;;;;;;;;;;;;;4904275;29;19934;-74
2022/08/31 08:51:36;;;;;;;;;;;;;;;;;;4926112;29;19975;-74
2022/08/31 08:54:03;;;;;;;;;;;;;;;;;;4906577;29;19931;-74
2022/08/31 08:56:45;;;;;;;;;;;;;;;;;;4914117;29;19970;-74
2022/08/31 08:59:16;;;;;;;;;;;;;;;;;;4923585;29;19927;-74
2022/08/31 09:01:47;;;;;;;;;;;;;;;;;;4901539;29;19942;-75
2022/08/31 09:04:16;;;;;;;;;;;;;;;;;;4913963;29;20039;-75
2022/08/31 09:06:53;;;;;;;;;;;;;;;;;;4906416;29;20253;-75
2022/08/31 09:09:23;;;;;;;;;;;;;;;;;;4899788;29;19938;-74
2022/08/31 09:11:55;;;;;;;;;;;;;;;;;;4894786;29;19938;-75
2022/08/31 09:14:23;;;;;;;;;;;;;;;;;;4918497;29;20528;-75
2022/08/31 09:16:50;;;;;;;;;;;;;;;;;;4897126;29;19935;-75
2022/08/31 09:19:18;;;;;;;;;;;;;;;;;;4915649;29;20629;-74
2022/08/31 09:21:45;;;;;;;;;;;;;;;;;;4899846;29;20230;-75
2022/08/31 09:24:13;;;;;;;;;;;;;;;;;;4886524;29;19943;-75
2022/08/31 09:26:53;;;;;;;;;;;;;;;;;;4912810;29;19942;-75
2022/08/31 09:29:32;;;;;;;;;;;;;;;;;;4903224;29;19935;-74
2022/08/31 09:31:59;;;;;;;;;;;;;;;;;;4901865;29;19927;-75
2022/08/31 09:34:34;;;;;;;;;;;;;;;;;;4910409;29;19930;-75
2022/08/31 09:37:01;;;;;;;;;;;;;;;;;;4903339;29;19927;-74
2022/08/31 09:39:28;;;;;;;;;;;;;;;;;;4903730;29;19931;-74
2022/08/31 09:42:03;;;;;;;;;;;;;;;;;;4899387;29;19931;-75
2022/08/31 09:44:31;;;;;;;;;;;;;;;;;;4906863;29;20407;-75
2022/08/31 09:47:00;;;;;;;;;;;;;;;;;;4909989;29;19946;-75
2022/08/31 09:49:28;;;;;;;;;;;;;;;;;;4910361;29;19939;-74
2022/08/31 09:51:55;;;;;;;;;;;;;;;;;;4906343;29;19931;-74
2022/08/31 09:57:13;;;;;;;;;;;;;;;;;;4908513;29;20395;-75
2022/08/31 09:59:43;;;;;;;;;;;;;;;;;;4910347;29;19935;-74
2022/08/31 10:02:10;;;;;;;;;;;;;;;;;;4910104;29;20205;-75
2022/08/31 10:04:40;;;;;;;;;;;;;;;;;;4908229;29;19931;-76
2022/08/31 10:07:10;;;;;;;;;;;;;;;;;;4910178;29;19935;-76
2022/08/31 10:09:37;;;;;;;;;;;;;;;;;;4909648;29;19939;-75
2022/08/31 10:12:04;;;;;;;;;;;;;;;;;;4909002;29;19935;-76
2022/08/31 10:14:34;;;;;;;;;;;;;;;;;;4903596;29;19943;-75
2022/08/31 10:17:02;;;;;;;;;;;;;;;;;;4903817;29;19935;-76
2022/08/31 10:19:31;;;;;;;;;;;;;;;;;;4906173;29;19938;-76
2022/08/31 10:21:58;;;;;;;;;;;;;;;;;;4919713;29;19927;-75
2022/08/31 10:24:32;;;;;;;;;;;;;;;;;;4900225;29;19979;-75
2022/08/31 10:27:00;;;;;;;;;;;;;;;;;;4905939;29;20337;-75
2022/08/31 10:29:28;;;;;;;;;;;;;;;;;;4909542;29;19938;-76
2022/08/31 10:31:56;;;;;;;;;;;;;;;;;;4904547;29;20289;-76
2022/08/31 10:37:09;;;;;;;;;;;;;;;;;;4906932;29;19986;-74
2022/08/31 10:39:36;;;;;;;;;;;;;;;;;;4910599;29;20391;-76
2022/08/31 10:42:04;;;;;;;;;;;;;;;;;;4911363;29;20360;-75
2022/08/31 10:44:31;;;;;;;;;;;;;;;;;;4910761;29;19958;-75
2022/08/31 10:47:01;;;;;;;;;;;;;;;;;;4910576;29;19958;-76
2022/08/31 10:49:28;;;;;;;;;;;;;;;;;;4909748;29;19971;-75
2022/08/31 10:52:00;;;;;;;;;;;;;;;;;;4911159;29;19935;-79
2022/08/31 10:54:27;;;;;;;;;;;;;;;;;;4909749;29;19927;-74
2022/08/31 10:56:57;;;;;;;;;;;;;;;;;;4909710;29;19973;-75
2022/08/31 10:59:26;;;;;;;;;;;;;;;;;;4910521;29;19931;-75
2022/08/31 11:01:53;;;;;;;;;;;;;;;;;;4913676;23;20265;-76
2022/08/31 11:04:20;;;;;;;;;;;;;;;;;;4883892;29;20357;-73
2022/08/31 11:06:48;;;;;;;;;;;;;;;;;;4883233;29;20388;-72
2022/08/31 11:09:19;;;;;;;;;;;;;;;;;;4879280;29;19975;-74
2022/08/31 11:11:46;;;;;;;;;;;;;;;;;;4902404;29;19927;-72
2022/08/31 11:14:13;;;;;;;;;;;;;;;;;;4876054;29;19932;-76
2022/08/31 11:16:42;;;;;;;;;;;;;;;;;;4897929;29;19928;-76
2022/08/31 11:19:09;;;;;;;;;;;;;;;;;;4901066;29;19975;-77
2022/08/31 11:21:37;;;;;;;;;;;;;;;;;;4888737;29;19932;-74
2022/08/31 11:24:04;;;;;;;;;;;;;;;;;;4872963;29;19936;-75
2022/08/31 11:26:31;;;;;;;;;;;;;;;;;;4872274;29;20387;-76
2022/08/31 11:28:59;;;;;;;;;;;;;;;;;;4873654;29;19934;-74
2022/08/31 11:31:26;;;;;;;;;;;;;;;;;;4873051;29;19932;-77
2022/08/31 11:33:56;;;;;;;;;;;;;;;;;;4871521;29;19932;-74
2022/08/31 11:36:41;;;;;;;;;;;;;;;;;;4870735;29;20289;-75
2022/08/31 11:39:27;;;;;;;;;;;;;;;;;;4879336;29;20079;-75
2022/08/31 11:41:54;;;;;;;;;;;;;;;;;;4854518;29;19932;-75
2022/08/31 11:44:21;;;;;;;;;;;;;;;;;;4853865;29;19928;-74
2022/08/31 11:46:49;;;;;;;;;;;;;;;;;;4853882;29;20223;-77
2022/08/31 11:49:16;;;;;;;;;;;;;;;;;;4854652;29;20367;-74
2022/08/31 11:51:44;;;;;;;;;;;;;;;;;;4853863;29;19935;-74
2022/08/31 11:54:11;;;;;;;;;;;;;;;;;;4854187;29;19932;-75
2022/08/31 11:56:38;;;;;;;;;;;;;;;;;;4853225;29;19928;-74
2022/08/31 11:59:06;;;;;;;;;;;;;;;;;;4853474;29;20444;-76
2022/08/31 12:01:33;;;;;;;;;;;;;;;;;;4853135;29;20022;-74
2022/08/31 12:04:02;;;;;;;;;;;;;;;;;;4869260;29;19963;-75
2022/08/31 12:06:34;;;;;;;;;;;;;;;;;;4870040;29;19938;-74
2022/08/31 12:09:01;;;;;;;;;;;;;;;;;;4886081;29;19987;-75
2022/08/31 12:11:28;;;;;;;;;;;;;;;;;;4886055;29;19934;-75
2022/08/31 12:14:00;;;;;;;;;;;;;;;;;;4872186;29;20027;-74
2022/08/31 12:16:28;;;;;;;;;;;;;;;;;;4871753;29;19934;-74
2022/08/31 12:18:57;;;;;;;;;;;;;;;;;;4872056;29;20289;-74
2022/08/31 12:24:11;;;;;;;;;;;;;;;;;;4860811;29;20435;-74
2022/08/31 12:26:39;;;;;;;;;;;;;;;;;;4898649;29;20401;-77
2022/08/31 12:29:11;;;;;;;;;;;;;;;;;;4870352;29;19932;-74
2022/08/31 12:31:38;;;;;;;;;;;;;;;;;;4863455;29;19953;-75
2022/08/31 12:34:06;;;;;;;;;;;;;;;;;;4871613;29;19932;-76
2022/08/31 12:36:33;;;;;;;;;;;;;;;;;;4864525;29;20388;-76
2022/08/31 12:39:01;;;;;;;;;;;;;;;;;;4864098;29;20512;-73
2022/08/31 12:41:28;;;;;;;;;;;;;;;;;;4864528;29;20586;-76
2022/08/31 12:43:55;;;;;;;;;;;;;;;;;;4868058;29;20396;-73
2022/08/31 12:46:23;;;;;;;;;;;;;;;;;;4870465;29;19936;-73
2022/08/31 12:48:50;;;;;;;;;;;;;;;;;;4894219;29;20265;-75
2022/08/31 12:51:18;;;;;;;;;;;;;;;;;;4864619;29;20304;-73
2022/08/31 12:53:45;;;;;;;;;;;;;;;;;;4871352;29;19982;-75
2022/08/31 12:56:13;;;;;;;;;;;;;;;;;;4886179;29;19943;-73
2022/08/31 12:58:40;;;;;;;;;;;;;;;;;;4884299;29;19932;-73
2022/08/31 13:01:07;;;;;;;;;;;;;;;;;;4871736;29;19928;-76
2022/08/31 13:03:35;;;;;;;;;;;;;;;;;;4873790;29;19947;-77
2022/08/31 13:06:04;;;;;;;;;;;;;;;;;;4870836;29;20026;-73
2022/08/31 13:08:31;;;;;;;;;;;;;;;;;;4868262;29;19932;-75
2022/08/31 13:10:59;;;;;;;;;;;;;;;;;;4872170;29;19932;-72
2022/08/31 13:13:26;;;;;;;;;;;;;;;;;;4875079;29;19932;-74
2022/08/31 13:15:53;;;;;;;;;;;;;;;;;;4872952;29;19928;-73
2022/08/31 13:18:20;;;;;;;;;;;;;;;;;;4861979;29;20356;-74
2022/08/31 13:20:48;;;;;;;;;;;;;;;;;;4867193;29;19932;-73
2022/08/31 13:23:16;;;;;;;;;;;;;;;;;;4863208;29;20399;-74
2022/08/31 13:25:47;;;;;;;;;;;;;;;;;;4875499;29;19943;-74
2022/08/31 13:28:17;;;;;;;;;;;;;;;;;;4874707;29;19927;-73
2022/08/31 13:30:45;;;;;;;;;;;;;;;;;;4874603;29;20259;-75
2022/08/31 13:33:23;;;;;;;;;;;;;;;;;;4875565;29;19928;-75
2022/08/31 13:35:51;;;;;;;;;;;;;;;;;;4876440;29;19931;-78
2022/08/31 13:38:35;;;;;;;;;;;;;;;;;;4881116;29;19928;-74
2022/08/31 13:41:04;;;;;;;;;;;;;;;;;;4877364;29;19935;-74
2022/08/31 13:43:32;;;;;;;;;;;;;;;;;;4868244;29;19928;-75
2022/08/31 13:46:03;;;;;;;;;;;;;;;;;;4866631;29;19979;-75
2022/08/31 13:48:31;;;;;;;;;;;;;;;;;;4868489;29;19951;-76
2022/08/31 13:50:58;;;;;;;;;;;;;;;;;;4871457;29;19927;-78
2022/08/31 13:53:26;;;;;;;;;;;;;;;;;;4871547;29;19942;-75
2022/08/31 13:55:53;;;;;;;;;;;;;;;;;;4869240;29;20412;-77
2022/08/31 13:58:21;;;;;;;;;;;;;;;;;;4861427;29;19927;-75
2022/08/31 14:00:57;;;;;;;;;;;;;;;;;;4863887;29;20361;-76
2022/08/31 14:03:27;;;;;;;;;;;;;;;;;;4882591;29;19932;-79
2022/08/31 14:05:57;;;;;;;;;;;;;;;;;;4873474;29;19932;-78
2022/08/31 14:08:25;;;;;;;;;;;;;;;;;;4865197;29;20463;-78
2022/08/31 14:10:54;;;;;;;;;;;;;;;;;;4870336;29;19931;-74
2022/08/31 14:13:26;;;;;;;;;;;;;;;;;;4873398;29;20301;-74
2022/08/31 14:15:55;;;;;;;;;;;;;;;;;;4869242;29;19931;-73
2022/08/31 14:18:23;;;;;;;;;;;;;;;;;;4873095;29;19948;-73
2022/08/31 14:20:54;;;;;;;;;;;;;;;;;;4873783;29;20272;-72
2022/08/31 14:23:41;;;;;;;;;;;;;;;;;;4873797;29;19932;-73
2022/08/31 14:26:11;;;;;;;;;;;;;;;;;;4873738;29;19934;-73
2022/08/31 14:28:41;;;;;;;;;;;;;;;;;;4873221;29;20016;-73
2022/08/31 14:31:11;;;;;;;;;;;;;;;;;;4873349;29;19934;-73
2022/08/31 14:33:39;;;;;;;;;;;;;;;;;;4872963;29;20209;-73
2022/08/31 14:36:13;;;;;;;;;;;;;;;;;;4872873;29;20406;-73
2022/08/31 14:38:40;;;;;;;;;;;;;;;;;;4873114;29;20404;-72
2022/08/31 14:41:08;;;;;;;;;;;;;;;;;;4873215;29;19931;-74
2022/08/31 14:43:37;;;;;;;;;;;;;;;;;;4873265;29;20457;-73
2022/08/31 14:46:05;;;;;;;;;;;;;;;;;;4874757;29;20320;-73
2022/08/31 14:48:33;;;;;;;;;;;;;;;;;;4863663;29;19936;-73
2022/08/31 14:51:05;;;;;;;;;;;;;;;;;;4869563;29;20234;-72
2022/08/31 14:53:36;;;;;;;;;;;;;;;;;;4872814;29;19932;-74
2022/08/31 14:56:03;;;;;;;;;;;;;;;;;;4872992;29;19932;-72
2022/08/31 14:58:33;;;;;;;;;;;;;;;;;;4872738;29;19935;-73
2022/08/31 15:01:03;;;;;;;;;;;;;;;;;;4872475;29;20377;-74
2022/08/31 15:03:33;;;;;;;;;;;;;;;;;;4872787;29;20350;-73
2022/08/31 15:06:02;;;;;;;;;;;;;;;;;;4872435;29;20011;-73
2022/08/31 15:08:29;;;;;;;;;;;;;;;;;;4872884;29;19932;-73
2022/08/31 15:11:04;;;;;;;;;;;;;;;;;;4872731;29;19954;-73
2022/08/31 15:13:32;;;;;;;;;;;;;;;;;;4871337;29;20337;-73
2022/08/31 15:16:02;;;;;;;;;;;;;;;;;;4870414;29;19932;-73
2022/08/31 15:18:30;;;;;;;;;;;;;;;;;;4867343;29;19942;-73
2022/08/31 15:20:58;;;;;;;;;;;;;;;;;;4871221;29;20396;-73
2022/08/31 15:23:25;;;;;;;;;;;;;;;;;;4867569;29;19931;-72
2022/08/31 15:25:52;;;;;;;;;;;;;;;;;;4862238;29;19928;-73
2022/08/31 15:28:20;;;;;;;;;;;;;;;;;;4860658;29;20459;-72
2022/08/31 15:30:47;;;;;;;;;;;;;;;;;;4889550;29;20434;-72
2022/08/31 15:33:14;;;;;;;;;;;;;;;;;;4873121;29;19932;-72
2022/08/31 15:35:42;;;;;;;;;;;;;;;;;;4874671;29;20020;-72
2022/08/31 15:38:10;;;;;;;;;;;;;;;;;;4874471;29;19935;-72
2022/08/31 15:40:38;;;;;;;;;;;;;;;;;;4908151;29;20640;-72
2022/08/31 15:43:08;;;;;;;;;;;;;;;;;;4878965;29;20064;-72
2022/08/31 15:45:35;;;;;;;;;;;;;;;;;;4877097;29;19932;-73
2022/08/31 15:50:51;;;;;;;;;;;;;;;;;;4878176;29;20434;-72
2022/08/31 15:53:20;;;;;;;;;;;;;;;;;;4876246;29;19932;-73
2022/08/31 15:55:48;;;;;;;;;;;;;;;;;;4875168;29;20003;-73
2022/08/31 15:58:17;;;;;;;;;;;;;;;;;;4872867;29;19951;-72
2022/08/31 16:00:49;;;;;;;;;;;;;;;;;;4873487;29;19947;-73
2022/08/31 16:03:17;;;;;;;;;;;;;;;;;;4872323;29;19964;-73
2022/08/31 16:05:44;;;;;;;;;;;;;;;;;;4867070;29;19932;-73
2022/08/31 16:08:12;;;;;;;;;;;;;;;;;;4869088;29;20014;-73
2022/08/31 16:10:40;;;;;;;;;;;;;;;;;;4866922;29;19964;-73
2022/08/31 16:13:08;;;;;;;;;;;;;;;;;;4865225;29;19943;-73
2022/08/31 16:15:35;;;;;;;;;;;;;;;;;;4872187;29;20019;-74
2022/08/31 16:18:03;;;;;;;;;;;;;;;;;;4870105;29;20483;-74
2022/08/31 16:20:31;;;;;;;;;;;;;;;;;;4869852;29;19931;-71
2022/08/31 16:22:59;;;;;;;;;;;;;;;;;;4872742;29;19932;-71
2022/08/31 16:25:29;;;;;;;;;;;;;;;;;;4867005;29;20631;-71
2022/08/31 16:27:57;;;;;;;;;;;;;;;;;;4862256;29;19932;-72
2022/08/31 16:30:24;;;;;;;;;;;;;;;;;;4870020;29;19932;-71
2022/08/31 16:32:52;;;;;;;;;;;;;;;;;;4871224;29;19954;-71
2022/08/31 16:35:19;;;;;;;;;;;;;;;;;;4870942;29;20315;-71
2022/08/31 16:37:46;;;;;;;;;;;;;;;;;;4869804;29;20050;-73
2022/08/31 16:40:14;;;;;;;;;;;;;;;;;;4871294;29;19932;-73
2022/08/31 16:42:42;;;;;;;;;;;;;;;;;;4868276;29;20215;-72
2022/08/31 16:45:09;;;;;;;;;;;;;;;;;;4872402;29;20340;-72
2022/08/31 16:47:36;;;;;;;;;;;;;;;;;;4875475;29;20030;-71
2022/08/31 16:50:07;;;;;;;;;;;;;;;;;;4871319;29;19935;-72
2022/08/31 16:52:34;;;;;;;;;;;;;;;;;;4875057;29;19942;-73
2022/08/31 16:55:02;;;;;;;;;;;;;;;;;;4875545;29;19939;-73
2022/08/31 16:57:31;;;;;;;;;;;;;;;;;;4889242;29;19939;-72
2022/08/31 16:59:58;;;;;;;;;;;;;;;;;;4874730;29;19934;-72
2022/08/31 17:02:26;;;;;;;;;;;;;;;;;;5422109;23;19950;-74
2022/08/31 17:04:53;;;;;;;;;;;;;;;;;;4892450;29;19931;-74
2022/08/31 17:07:20;;;;;;;;;;;;;;;;;;4893315;29;20412;-75
2022/08/31 17:09:48;;;;;;;;;;;;;;;;;;4890816;29;20026;-75
2022/08/31 17:12:15;;;;;;;;;;;;;;;;;;4891182;29;19931;-75
2022/08/31 17:14:45;;;;;;;;;;;;;;;;;;4879586;29;20029;-75
2022/08/31 17:17:12;;;;;;;;;;;;;;;;;;4892574;29;20247;-75
2022/08/31 17:19:39;;;;;;;;;;;;;;;;;;4874502;29;19932;-75
2022/08/31 17:22:07;;;;;;;;;;;;;;;;;;4873474;29;19927;-75
2022/08/31 17:24:37;;;;;;;;;;;;;;;;;;4872900;29;20018;-75